KTSP/TSP METAR and TAF weather

Enter ICAO airport designator
Station Type Date Time Source
KTSP METAR 2020/04/05 21:55 UTC NOAA

KTSP 052155Z AUTO 14010G15KT 10SM BKN060 10/03 A2981 RMK AO2


Station Type Date Time Source
KTSP Decoded METAR 2020/04/05 21:55 UTC NOAA

Station name not available
Apr 05, 2020 - 05:55 PM EDT / 2020.04.05 2155 UTC
Wind: from the SE (140 degrees) at 12 MPH (10 KT) gusting to 17 MPH (15 KT):0
Visibility: 10 mile(s):0
Sky conditions: mostly cloudy
Temperature: 50 F (10 C)
Dew Point: 37 F (3 C)
Relative Humidity: 61%
Pressure (altimeter): 29.81 in. Hg (1009 hPa)
ob: KTSP 052155Z AUTO 14010G15KT 10SM BKN060 10/03 A2981 RMK AO2
cycle: 22

Station Type Date Time Source
KTSP TAF UTC NOAA

Error!

Example: see airport list